createdAt,value
2023-05-23T00:00:15.169Z,666.00
2023-05-23T00:01:16.161Z,662.00
2023-05-23T00:02:16.318Z,663.00
2023-05-23T00:03:16.404Z,663.00
2023-05-23T00:04:16.206Z,663.00
2023-05-23T00:05:15.142Z,666.00
2023-05-23T00:06:16.143Z,670.00
2023-05-23T00:07:15.171Z,662.00
2023-05-23T00:08:15.253Z,663.00
2023-05-23T00:09:16.299Z,665.00
2023-05-23T00:10:15.370Z,667.00
2023-05-23T00:11:16.420Z,663.00
2023-05-23T00:12:16.496Z,660.00
2023-05-23T00:13:15.529Z,665.00
2023-05-23T00:14:15.583Z,662.00
2023-05-23T00:15:16.619Z,662.00
2023-05-23T00:16:16.698Z,665.00
2023-05-23T00:17:16.753Z,664.00
2023-05-23T00:18:16.951Z,667.00
2023-05-23T00:19:15.916Z,665.00
2023-05-23T00:20:15.951Z,664.00
2023-05-23T00:21:16.027Z,664.00
2023-05-23T00:22:16.057Z,665.00
2023-05-23T00:23:16.132Z,665.00
2023-05-23T00:24:17.149Z,663.00
2023-05-23T00:25:17.221Z,660.00
2023-05-23T00:26:16.274Z,665.00
2023-05-23T00:27:17.334Z,664.00
2023-05-23T00:28:16.374Z,664.00
2023-05-23T00:29:17.433Z,669.00
2023-05-23T00:30:16.443Z,666.00
2023-05-23T00:31:16.548Z,663.00
2023-05-23T00:32:17.538Z,661.00
2023-05-23T00:33:17.605Z,664.00
2023-05-23T00:34:18.054Z,662.00
2023-05-23T00:35:16.650Z,670.00
2023-05-23T00:36:17.707Z,661.00
2023-05-23T00:37:16.776Z,661.00
2023-05-23T00:38:17.844Z,662.00
2023-05-23T00:39:17.924Z,663.00
2023-05-23T00:40:17.968Z,664.00
2023-05-23T00:41:18.020Z,662.00
2023-05-23T00:42:18.080Z,660.00
2023-05-23T00:43:17.134Z,659.00
2023-05-23T00:44:18.223Z,664.00
2023-05-23T00:45:18.250Z,662.00
2023-05-23T00:46:18.338Z,664.00
2023-05-23T00:47:18.383Z,663.00
2023-05-23T00:48:18.417Z,663.00
2023-05-23T00:49:18.483Z,661.00
2023-05-23T00:50:17.670Z,665.00
2023-05-23T00:51:18.592Z,661.00
2023-05-23T00:52:18.650Z,659.00
2023-05-23T00:53:18.721Z,657.00
2023-05-23T00:54:17.752Z,662.00
2023-05-23T00:55:17.786Z,656.00
2023-05-23T00:56:18.824Z,663.00
2023-05-23T00:57:17.884Z,662.00
2023-05-23T00:58:18.922Z,659.00
2023-05-23T00:59:18.975Z,661.00
2023-05-23T01:00:19.036Z,659.00
2023-05-23T01:01:18.118Z,660.00
2023-05-23T01:02:19.174Z,659.00
2023-05-23T01:03:19.237Z,665.00
2023-05-23T01:04:19.256Z,661.00
2023-05-23T01:05:19.443Z,660.00
2023-05-23T01:06:18.340Z,663.00
2023-05-23T01:07:19.381Z,660.00
2023-05-23T01:08:18.454Z,670.00
2023-05-23T01:09:18.491Z,655.00
2023-05-23T01:10:19.545Z,659.00
2023-05-23T01:11:19.581Z,665.00
2023-05-23T01:12:18.653Z,661.00
2023-05-23T01:13:18.681Z,654.00
2023-05-23T01:14:19.706Z,664.00
2023-05-23T01:15:18.759Z,664.00
2023-05-23T01:16:19.903Z,658.00
2023-05-23T01:17:19.902Z,659.00
2023-05-23T01:18:19.930Z,658.00
2023-05-23T01:19:19.041Z,662.00
2023-05-23T01:20:20.048Z,663.00
2023-05-23T01:21:20.205Z,663.00
2023-05-23T01:22:19.138Z,658.00
2023-05-23T01:23:19.187Z,663.00
2023-05-23T01:24:19.232Z,661.00
2023-05-23T01:25:20.269Z,659.00
2023-05-23T01:26:20.351Z,661.00
2023-05-23T01:27:19.395Z,660.00
2023-05-23T01:28:20.430Z,662.00
2023-05-23T01:29:20.472Z,661.00
2023-05-23T01:30:20.509Z,662.00
2023-05-23T01:31:19.590Z,660.00
2023-05-23T01:32:20.553Z,656.00
2023-05-23T01:33:19.615Z,661.00
2023-05-23T01:34:20.709Z,656.00
2023-05-23T01:35:20.709Z,660.00
2023-05-23T01:36:19.773Z,662.00
2023-05-23T01:37:19.961Z,661.00
2023-05-23T01:38:20.859Z,656.00
2023-05-23T01:39:20.918Z,659.00
2023-05-23T01:40:20.974Z,663.00
2023-05-23T01:41:20.022Z,657.00
2023-05-23T01:42:20.069Z,657.00
2023-05-23T01:43:21.132Z,653.00
2023-05-23T01:44:21.250Z,659.00
2023-05-23T01:45:21.079Z,656.00
2023-05-23T01:46:21.188Z,662.00
2023-05-23T01:47:21.159Z,657.00
2023-05-23T01:48:20.224Z,661.00
2023-05-23T01:49:20.226Z,657.00
2023-05-23T01:50:21.253Z,658.00
2023-05-23T01:51:20.289Z,658.00
2023-05-23T01:52:20.352Z,660.00
2023-05-23T01:53:20.490Z,655.00
2023-05-23T01:54:20.403Z,657.00
2023-05-23T01:55:21.423Z,657.00
2023-05-23T01:56:20.465Z,660.00
2023-05-23T01:57:21.530Z,658.00
2023-05-23T01:58:20.515Z,657.00
2023-05-23T01:59:20.534Z,657.00
2023-05-23T02:00:20.565Z,656.00
2023-05-23T02:01:21.610Z,658.00
2023-05-23T02:02:20.660Z,657.00
2023-05-23T02:03:20.714Z,654.00
2023-05-23T02:04:20.538Z,659.00
2023-05-23T02:05:20.542Z,654.00
2023-05-23T02:06:21.557Z,655.00
2023-05-23T02:07:21.565Z,656.00
2023-05-23T02:08:21.548Z,654.00
2023-05-23T02:09:21.668Z,659.00
2023-05-23T02:10:21.589Z,656.00
2023-05-23T02:11:21.600Z,656.00
2023-05-23T02:12:21.598Z,656.00
2023-05-23T02:13:20.623Z,654.00
2023-05-23T02:14:21.624Z,654.00
2023-05-23T02:15:20.657Z,655.00
2023-05-23T02:16:20.724Z,652.00
2023-05-23T02:17:20.725Z,658.00
2023-05-23T02:18:21.742Z,650.00
2023-05-23T02:19:21.860Z,651.00
2023-05-23T02:20:20.835Z,654.00
2023-05-23T02:21:20.869Z,654.00
2023-05-23T02:22:20.957Z,647.00
2023-05-23T02:23:20.925Z,657.00
2023-05-23T02:24:21.953Z,653.00
2023-05-23T02:25:22.102Z,655.00
2023-05-23T02:26:21.009Z,657.00
2023-05-23T02:27:21.044Z,654.00
2023-05-23T02:28:21.145Z,657.00
2023-05-23T02:29:21.054Z,656.00
2023-05-23T02:30:22.087Z,655.00
2023-05-23T02:31:22.177Z,653.00
2023-05-23T02:32:22.150Z,656.00
2023-05-23T02:33:22.169Z,653.00
2023-05-23T02:34:21.176Z,656.00
2023-05-23T02:35:21.192Z,650.00
2023-05-23T02:36:22.190Z,652.00
2023-05-23T02:37:22.227Z,655.00
2023-05-23T02:38:22.272Z,651.00
2023-05-23T02:39:21.256Z,650.00
2023-05-23T02:40:22.261Z,650.00
2023-05-23T02:41:21.375Z,648.00
2023-05-23T02:42:22.267Z,653.00
2023-05-23T02:43:21.267Z,656.00
2023-05-23T02:44:21.266Z,654.00
2023-05-23T02:45:22.272Z,655.00
2023-05-23T02:46:22.288Z,655.00
2023-05-23T02:47:22.325Z,653.00
2023-05-23T02:48:22.256Z,651.00
2023-05-23T02:49:22.266Z,655.00
2023-05-23T02:50:22.260Z,651.00
2023-05-23T02:51:22.268Z,654.00
2023-05-23T02:52:21.257Z,652.00
2023-05-23T02:53:22.247Z,650.00
2023-05-23T02:54:22.229Z,651.00
2023-05-23T02:55:22.239Z,656.00
2023-05-23T02:56:22.334Z,649.00
2023-05-23T02:57:22.358Z,658.00
2023-05-23T02:58:22.273Z,653.00
2023-05-23T02:59:22.236Z,650.00
2023-05-23T03:00:21.267Z,648.00
2023-05-23T03:01:21.247Z,651.00
2023-05-23T03:02:21.239Z,651.00
2023-05-23T03:03:22.271Z,653.00
2023-05-23T03:04:22.245Z,653.00
2023-05-23T03:05:22.216Z,649.00
2023-05-23T03:06:21.227Z,650.00
2023-05-23T03:07:28.168Z,653.00
2023-05-23T03:08:22.205Z,654.00
2023-05-23T03:09:21.196Z,654.00
2023-05-23T03:10:22.182Z,654.00
2023-05-23T03:11:22.189Z,653.00
2023-05-23T03:12:21.171Z,653.00
2023-05-23T03:13:21.327Z,650.00
2023-05-23T03:14:21.163Z,651.00
2023-05-23T03:15:22.155Z,650.00
2023-05-23T03:16:22.203Z,654.00
2023-05-23T03:17:22.190Z,649.00
2023-05-23T03:18:22.135Z,651.00
2023-05-23T03:19:22.165Z,645.00
2023-05-23T03:20:21.120Z,649.00
2023-05-23T03:21:22.106Z,650.00
2023-05-23T03:22:21.109Z,649.00
2023-05-23T03:23:21.105Z,650.00
2023-05-23T03:24:21.172Z,654.00
2023-05-23T03:25:22.122Z,654.00
2023-05-23T03:26:22.076Z,651.00
2023-05-23T03:27:21.070Z,651.00
2023-05-23T03:28:21.071Z,648.00
2023-05-23T03:29:22.185Z,653.00
2023-05-23T03:30:21.054Z,651.00
2023-05-23T03:31:22.072Z,652.00
2023-05-23T03:32:22.052Z,651.00
2023-05-23T03:33:22.027Z,653.00
2023-05-23T03:34:21.023Z,651.00
2023-05-23T03:35:21.020Z,652.00
2023-05-23T03:36:22.022Z,649.00
2023-05-23T03:37:22.035Z,648.00
2023-05-23T03:38:22.010Z,652.00
2023-05-23T03:39:21.993Z,653.00
2023-05-23T03:40:20.988Z,650.00
2023-05-23T03:41:21.981Z,652.00
2023-05-23T03:42:22.001Z,649.00
2023-05-23T03:43:20.993Z,651.00
2023-05-23T03:44:21.963Z,649.00
2023-05-23T03:45:22.093Z,650.00
2023-05-23T03:46:21.031Z,653.00
2023-05-23T03:47:20.948Z,650.00
2023-05-23T03:48:20.964Z,645.00
2023-05-23T03:49:21.928Z,647.00
2023-05-23T03:50:20.924Z,651.00
2023-05-23T03:51:21.930Z,654.00
2023-05-23T03:52:21.919Z,645.00
2023-05-23T03:53:21.905Z,647.00
2023-05-23T03:54:21.895Z,645.00
2023-05-23T03:55:21.891Z,648.00
2023-05-23T03:56:20.893Z,651.00
2023-05-23T03:57:20.877Z,648.00
2023-05-23T03:58:20.869Z,649.00
2023-05-23T03:59:20.878Z,649.00
2023-05-23T04:00:20.861Z,648.00
2023-05-23T04:01:20.982Z,650.00
2023-05-23T04:02:21.965Z,646.00
2023-05-23T04:03:21.985Z,647.00
2023-05-23T04:04:21.914Z,645.00
2023-05-23T04:05:20.830Z,647.00
2023-05-23T04:06:21.829Z,642.00
2023-05-23T04:07:21.095Z,644.00
2023-05-23T04:08:21.813Z,648.00
2023-05-23T04:09:21.800Z,642.00
2023-05-23T04:10:20.825Z,648.00
2023-05-23T04:11:20.799Z,650.00
2023-05-23T04:12:21.781Z,650.00
2023-05-23T04:13:21.776Z,646.00
2023-05-23T04:14:21.767Z,644.00
2023-05-23T04:15:21.840Z,647.00
2023-05-23T04:16:20.765Z,644.00
2023-05-23T04:17:21.975Z,641.00
2023-05-23T04:18:20.745Z,646.00
2023-05-23T04:19:20.735Z,643.00
2023-05-23T04:20:20.721Z,645.00
2023-05-23T04:21:21.734Z,647.00
2023-05-23T04:22:21.737Z,647.00
2023-05-23T04:23:20.745Z,644.00
2023-05-23T04:24:21.724Z,644.00
2023-05-23T04:25:20.698Z,646.00
2023-05-23T04:26:20.684Z,645.00
2023-05-23T04:27:20.704Z,648.00
2023-05-23T04:28:20.689Z,644.00
2023-05-23T04:29:21.692Z,648.00
2023-05-23T04:30:20.669Z,644.00
2023-05-23T04:31:20.722Z,647.00
2023-05-23T04:32:21.680Z,644.00
2023-05-23T04:33:20.784Z,641.00
2023-05-23T04:34:21.652Z,649.00
2023-05-23T04:35:21.644Z,645.00
2023-05-23T04:36:21.634Z,643.00
2023-05-23T04:37:21.631Z,645.00
2023-05-23T04:38:21.625Z,648.00
2023-05-23T04:39:20.603Z,651.00
2023-05-23T04:40:20.598Z,645.00
2023-05-23T04:41:21.623Z,642.00
2023-05-23T04:42:21.586Z,648.00
2023-05-23T04:43:21.594Z,643.00
2023-05-23T04:44:20.573Z,649.00
2023-05-23T04:45:21.569Z,648.00
2023-05-23T04:46:20.631Z,639.00
2023-05-23T04:47:20.551Z,644.00
2023-05-23T04:48:21.576Z,648.00
2023-05-23T04:49:20.681Z,640.00
2023-05-23T04:50:21.540Z,645.00
2023-05-23T04:51:21.539Z,644.00
2023-05-23T04:52:21.533Z,643.00
2023-05-23T04:53:21.511Z,645.00
2023-05-23T04:54:20.517Z,648.00
2023-05-23T04:55:21.527Z,649.00
2023-05-23T04:56:22.075Z,644.00
2023-05-23T04:57:21.500Z,644.00
2023-05-23T04:58:21.502Z,645.00
2023-05-23T04:59:21.491Z,644.00
2023-05-23T05:00:21.515Z,641.00
2023-05-23T05:01:22.244Z,641.00
2023-05-23T05:02:22.082Z,641.00
2023-05-23T05:03:20.461Z,641.00
2023-05-23T05:04:20.492Z,643.00
2023-05-23T05:05:21.577Z,644.00
2023-05-23T05:06:21.482Z,651.00
2023-05-23T05:07:20.438Z,654.00
2023-05-23T05:08:21.435Z,650.00
2023-05-23T05:09:21.416Z,649.00
2023-05-23T05:10:21.411Z,645.00
2023-05-23T05:11:21.398Z,647.00
2023-05-23T05:12:20.420Z,646.00
2023-05-23T05:13:20.398Z,640.00
2023-05-23T05:14:20.387Z,647.00
2023-05-23T05:15:20.384Z,645.00
2023-05-23T05:16:20.457Z,650.00
2023-05-23T05:17:21.421Z,646.00
2023-05-23T05:18:21.353Z,647.00
2023-05-23T05:19:20.360Z,646.00
2023-05-23T05:20:21.385Z,643.00
2023-05-23T05:21:21.480Z,643.00
2023-05-23T05:22:20.337Z,645.00
2023-05-23T05:23:20.301Z,643.00
2023-05-23T05:24:21.304Z,647.00
2023-05-23T05:25:20.304Z,642.00
2023-05-23T05:26:21.307Z,643.00
2023-05-23T05:27:21.295Z,646.00
2023-05-23T05:28:21.282Z,641.00
2023-05-23T05:29:21.314Z,641.00
2023-05-23T05:30:21.284Z,638.00
2023-05-23T05:31:21.281Z,645.00
2023-05-23T05:32:20.337Z,644.00
2023-05-23T05:33:20.266Z,643.00
2023-05-23T05:34:21.235Z,651.00
2023-05-23T05:35:21.256Z,646.00
2023-05-23T05:36:21.235Z,644.00
2023-05-23T05:37:21.399Z,644.00
2023-05-23T05:38:21.251Z,644.00
2023-05-23T05:39:21.224Z,647.00
2023-05-23T05:40:21.242Z,647.00
2023-05-23T05:41:21.265Z,649.00
2023-05-23T05:42:21.205Z,647.00
2023-05-23T05:43:21.190Z,648.00
2023-05-23T05:44:20.271Z,656.00
2023-05-23T05:45:21.324Z,654.00
2023-05-23T05:46:21.369Z,661.00
2023-05-23T05:47:21.174Z,660.00
2023-05-23T05:48:20.156Z,662.00
2023-05-23T05:49:21.149Z,661.00
2023-05-23T05:50:21.149Z,666.00
2023-05-23T05:51:21.155Z,681.00
2023-05-23T05:52:21.150Z,702.00
2023-05-23T05:53:21.245Z,683.00
2023-05-23T05:54:21.161Z,700.00
2023-05-23T05:55:21.130Z,696.00
2023-05-23T05:56:21.135Z,733.00
2023-05-23T05:57:21.137Z,725.00
2023-05-23T05:58:21.141Z,751.00
2023-05-23T05:59:21.225Z,760.00
2023-05-23T06:00:21.088Z,776.00
2023-05-23T06:01:21.105Z,807.00
2023-05-23T06:02:20.693Z,804.00
2023-05-23T06:03:21.147Z,823.00
2023-05-23T06:04:21.137Z,840.00
2023-05-23T06:05:21.054Z,866.00
2023-05-23T06:06:21.051Z,869.00
2023-05-23T06:07:21.094Z,900.00
2023-05-23T06:08:20.328Z,933.00
2023-05-23T06:09:20.397Z,952.00
2023-05-23T06:10:20.472Z,988.00
2023-05-23T06:11:20.254Z,1015.00
2023-05-23T06:12:21.317Z,1023.00
2023-05-23T06:13:21.299Z,1038.00
2023-05-23T06:14:21.419Z,1039.00
2023-05-23T06:15:21.552Z,1072.00
2023-05-23T06:16:20.681Z,1092.00
2023-05-23T06:17:21.853Z,1107.00
2023-05-23T06:18:21.645Z,1119.00
2023-05-23T06:19:21.663Z,1142.00
2023-05-23T06:20:21.574Z,1160.00
2023-05-23T06:21:20.532Z,1165.00
2023-05-23T06:22:21.577Z,1173.00
2023-05-23T06:23:21.549Z,1198.00
2023-05-23T06:24:20.659Z,1200.00
2023-05-23T06:25:21.648Z,1221.00
2023-05-23T06:26:21.572Z,1222.00
2023-05-23T06:27:27.502Z,1237.00
2023-05-23T06:28:20.459Z,1239.00
2023-05-23T06:29:21.449Z,1246.00
2023-05-23T06:30:21.462Z,1259.00
2023-05-23T06:31:21.469Z,1280.00
2023-05-23T06:32:21.481Z,1322.00
2023-05-23T06:33:21.433Z,1351.00
2023-05-23T06:34:21.425Z,1363.00
2023-05-23T06:35:20.409Z,1360.00
2023-05-23T06:36:21.419Z,1378.00
2023-05-23T06:37:21.473Z,1386.00
2023-05-23T06:38:21.401Z,1405.00
2023-05-23T06:39:20.380Z,1414.00
2023-05-23T06:40:20.394Z,1439.00
2023-05-23T06:41:20.513Z,1449.00
2023-05-23T06:42:21.371Z,1460.00
2023-05-23T06:43:21.369Z,1467.00
2023-05-23T06:44:20.365Z,1471.00
2023-05-23T06:45:21.359Z,1517.00
2023-05-23T06:46:21.390Z,1503.00
2023-05-23T06:47:21.370Z,1511.00
2023-05-23T06:48:21.320Z,1513.00
2023-05-23T06:49:21.312Z,1535.00
2023-05-23T06:50:21.321Z,1545.00
2023-05-23T06:51:21.368Z,1586.00
2023-05-23T06:52:20.291Z,1592.00
2023-05-23T06:53:21.562Z,1575.00
2023-05-23T06:54:21.283Z,1576.00
2023-05-23T06:55:21.369Z,1627.00
2023-05-23T06:56:21.413Z,1725.00
2023-05-23T06:57:20.584Z,1728.00
2023-05-23T06:58:20.574Z,1717.00
2023-05-23T06:59:21.578Z,1734.00
2023-05-23T07:00:20.626Z,1723.00
2023-05-23T07:01:21.670Z,1708.00
2023-05-23T07:02:20.714Z,1689.00
2023-05-23T07:03:21.666Z,1677.00
2023-05-23T07:04:21.646Z,1691.00
2023-05-23T07:05:21.700Z,1663.00
2023-05-23T07:06:20.690Z,1689.00
2023-05-23T07:07:20.649Z,1688.00
2023-05-23T07:08:20.661Z,1662.00
2023-05-23T07:09:21.671Z,1666.00
2023-05-23T07:10:21.677Z,1652.00
2023-05-23T07:11:20.697Z,1653.00
2023-05-23T07:12:20.706Z,1663.00
2023-05-23T07:13:21.823Z,1654.00
2023-05-23T07:14:21.693Z,1645.00
2023-05-23T07:15:20.714Z,1650.00
2023-05-23T07:16:20.762Z,1654.00
2023-05-23T07:17:20.835Z,1627.00
2023-05-23T07:18:21.738Z,1629.00
2023-05-23T07:19:20.784Z,1639.00
2023-05-23T07:20:20.757Z,1649.00
2023-05-23T07:21:21.763Z,1644.00
2023-05-23T07:22:21.772Z,1622.00
2023-05-23T07:23:21.829Z,1631.00
2023-05-23T07:24:22.855Z,1621.00
2023-05-23T07:25:20.819Z,1659.00
2023-05-23T07:26:21.791Z,1653.00
2023-05-23T07:27:21.790Z,1636.00
2023-05-23T07:28:20.781Z,1635.00
2023-05-23T07:29:21.919Z,1641.00
2023-05-23T07:30:21.781Z,1619.00
2023-05-23T07:31:21.892Z,1617.00
2023-05-23T07:32:21.770Z,1618.00
2023-05-23T07:33:21.786Z,1619.00
2023-05-23T07:34:21.745Z,1606.00
2023-05-23T07:35:21.755Z,1617.00
2023-05-23T07:36:21.748Z,1612.00
2023-05-23T07:37:21.748Z,1597.00
2023-05-23T07:38:21.743Z,1615.00
2023-05-23T07:39:20.727Z,1592.00
2023-05-23T07:40:20.725Z,1604.00
2023-05-23T07:41:20.733Z,1596.00
2023-05-23T07:42:21.694Z,1589.00
2023-05-23T07:43:21.697Z,1586.00
2023-05-23T07:44:24.655Z,1584.00
2023-05-23T07:45:21.691Z,1585.00
2023-05-23T07:46:21.717Z,1587.00
2023-05-23T07:47:21.747Z,1593.00
2023-05-23T07:48:22.109Z,1604.00
2023-05-23T07:49:21.671Z,1620.00
2023-05-23T07:50:21.660Z,1604.00
2023-05-23T07:51:21.660Z,1600.00
2023-05-23T07:52:20.639Z,1572.00
2023-05-23T07:53:22.098Z,1585.00
2023-05-23T07:54:21.638Z,1588.00
2023-05-23T07:55:21.609Z,1573.00
2023-05-23T07:56:20.621Z,1567.00
2023-05-23T07:57:20.609Z,1564.00
2023-05-23T07:58:20.596Z,1565.00
2023-05-23T07:59:20.582Z,1562.00
2023-05-23T08:00:21.586Z,1553.00
2023-05-23T08:01:20.600Z,1553.00
2023-05-23T08:02:20.630Z,1536.00
2023-05-23T08:03:21.630Z,1542.00
2023-05-23T08:04:21.599Z,1543.00
2023-05-23T08:05:21.537Z,1553.00
2023-05-23T08:06:20.532Z,1536.00
2023-05-23T08:07:21.539Z,1531.00
2023-05-23T08:08:21.523Z,1528.00
2023-05-23T08:09:21.532Z,1524.00
2023-05-23T08:10:21.538Z,1532.00
2023-05-23T08:11:20.524Z,1535.00
2023-05-23T08:12:20.564Z,1516.00
2023-05-23T08:13:21.577Z,1526.00
2023-05-23T08:14:20.573Z,1510.00
2023-05-23T08:15:21.592Z,1516.00
2023-05-23T08:16:21.703Z,1517.00
2023-05-23T08:17:20.840Z,1507.00
2023-05-23T08:18:21.744Z,1498.00
2023-05-23T08:19:21.784Z,1509.00
2023-05-23T08:20:21.775Z,1499.00
2023-05-23T08:21:20.800Z,1486.00
2023-05-23T08:22:21.830Z,1505.00
2023-05-23T08:23:20.867Z,1492.00
2023-05-23T08:24:20.872Z,1498.00
2023-05-23T08:25:21.896Z,1508.00
2023-05-23T08:26:20.931Z,1485.00
2023-05-23T08:27:20.936Z,1482.00
2023-05-23T08:28:21.984Z,1481.00
2023-05-23T08:29:22.031Z,1486.00
2023-05-23T08:30:22.090Z,1479.00
2023-05-23T08:31:22.104Z,1467.00
2023-05-23T08:32:22.271Z,1472.00
2023-05-23T08:33:21.260Z,1472.00
2023-05-23T08:34:22.221Z,1459.00
2023-05-23T08:35:21.250Z,1475.00
2023-05-23T08:36:22.292Z,1468.00
2023-05-23T08:37:22.330Z,1468.00
2023-05-23T08:38:22.352Z,1467.00
2023-05-23T08:39:22.385Z,1458.00
2023-05-23T08:40:21.603Z,1450.00
2023-05-23T08:41:22.469Z,1474.00
2023-05-23T08:42:22.515Z,1448.00
2023-05-23T08:43:22.627Z,1490.00
2023-05-23T08:44:22.110Z,1501.00
2023-05-23T08:45:21.607Z,1484.00
2023-05-23T08:46:22.644Z,1476.00
2023-05-23T08:47:21.643Z,1477.00
2023-05-23T08:48:22.650Z,1474.00
2023-05-23T08:49:22.699Z,1483.00
2023-05-23T08:50:23.420Z,1492.00
2023-05-23T08:51:22.629Z,1495.00
2023-05-23T08:52:22.646Z,1518.00
2023-05-23T08:53:22.719Z,1513.00
2023-05-23T08:54:22.653Z,1522.00
2023-05-23T08:55:22.684Z,1520.00
2023-05-23T08:56:22.672Z,1520.00
2023-05-23T08:57:21.702Z,1526.00
2023-05-23T08:58:22.131Z,1537.00
2023-05-23T08:59:22.730Z,1538.00
2023-05-23T09:00:22.732Z,1535.00
2023-05-23T09:01:22.772Z,1532.00
2023-05-23T09:02:22.826Z,1513.00
2023-05-23T09:03:21.719Z,1516.00
2023-05-23T09:04:21.733Z,1515.00
2023-05-23T09:05:21.808Z,1528.00
2023-05-23T09:06:22.730Z,1528.00
2023-05-23T09:07:22.752Z,1511.00
2023-05-23T09:08:22.749Z,1505.00
2023-05-23T09:09:21.740Z,1518.00
2023-05-23T09:10:21.740Z,1510.00
2023-05-23T09:11:22.727Z,1521.00
2023-05-23T09:12:22.733Z,1506.00
2023-05-23T09:13:22.760Z,1498.00
2023-05-23T09:14:21.766Z,1485.00
2023-05-23T09:15:22.746Z,1492.00
2023-05-23T09:16:22.924Z,1485.00
2023-05-23T09:17:21.812Z,1491.00
2023-05-23T09:18:21.794Z,1486.00
2023-05-23T09:19:22.846Z,1479.00
2023-05-23T09:20:21.839Z,1486.00
2023-05-23T09:21:22.841Z,1489.00
2023-05-23T09:22:22.821Z,1492.00
2023-05-23T09:23:22.839Z,1476.00
2023-05-23T09:24:21.861Z,1489.00
2023-05-23T09:25:22.866Z,1490.00
2023-05-23T09:26:22.877Z,1489.00
2023-05-23T09:27:22.887Z,1480.00
2023-05-23T09:28:22.888Z,1470.00
2023-05-23T09:29:22.902Z,1477.00
2023-05-23T09:30:22.904Z,1472.00
2023-05-23T09:31:22.976Z,1466.00
2023-05-23T09:32:22.073Z,1475.00
2023-05-23T09:33:22.975Z,1475.00
2023-05-23T09:34:21.962Z,1452.00
2023-05-23T09:35:21.973Z,1459.00
2023-05-23T09:36:21.999Z,1469.00
2023-05-23T09:37:23.025Z,1455.00
2023-05-23T09:38:22.047Z,1453.00
2023-05-23T09:39:23.036Z,1463.00
2023-05-23T09:40:23.431Z,1446.00
2023-05-23T09:41:22.041Z,1436.00
2023-05-23T09:42:23.111Z,1442.00
2023-05-23T09:43:22.091Z,1453.00
2023-05-23T09:44:22.110Z,1433.00
2023-05-23T09:45:22.125Z,1450.00
2023-05-23T09:46:23.276Z,1447.00
2023-05-23T09:47:22.292Z,1437.00
2023-05-23T09:48:23.653Z,1475.00
2023-05-23T09:49:23.178Z,1457.00
2023-05-23T09:50:22.178Z,1454.00
2023-05-23T09:51:23.211Z,1433.00
2023-05-23T09:52:23.195Z,1447.00
2023-05-23T09:53:23.209Z,1420.00
2023-05-23T09:54:22.145Z,1442.00
2023-05-23T09:55:23.167Z,1437.00
2023-05-23T09:56:23.146Z,1431.00
2023-05-23T09:57:23.148Z,1432.00
2023-05-23T09:58:23.146Z,1414.00
2023-05-23T09:59:23.149Z,1420.00
2023-05-23T10:00:23.161Z,1423.00
2023-05-23T10:01:23.208Z,1405.00
2023-05-23T10:02:28.662Z,1415.00
2023-05-23T10:03:22.124Z,1416.00
2023-05-23T10:04:23.165Z,1417.00
2023-05-23T10:05:23.121Z,1423.00
2023-05-23T10:06:23.126Z,1422.00
2023-05-23T10:07:23.173Z,1431.00
2023-05-23T10:08:22.125Z,1432.00
2023-05-23T10:09:23.136Z,1418.00
2023-05-23T10:10:23.090Z,1409.00
2023-05-23T10:11:23.090Z,1407.00
2023-05-23T10:12:23.091Z,1400.00
2023-05-23T10:13:22.085Z,1399.00
2023-05-23T10:14:22.073Z,1403.00
2023-05-23T10:15:23.086Z,1388.00
2023-05-23T10:16:23.061Z,1391.00
2023-05-23T10:17:23.083Z,1388.00
2023-05-23T10:18:22.037Z,1380.00
2023-05-23T10:19:22.080Z,1392.00
2023-05-23T10:20:23.049Z,1388.00
2023-05-23T10:21:23.035Z,1382.00
2023-05-23T10:22:23.028Z,1385.00
2023-05-23T10:23:22.022Z,1381.00
2023-05-23T10:24:23.001Z,1377.00
2023-05-23T10:25:22.020Z,1382.00
2023-05-23T10:26:22.988Z,1379.00
2023-05-23T10:27:22.981Z,1377.00
2023-05-23T10:28:27.152Z,1373.00
2023-05-23T10:29:22.957Z,1374.00
2023-05-23T10:30:22.949Z,1376.00
2023-05-23T10:31:22.998Z,1378.00
2023-05-23T10:32:22.998Z,1377.00
2023-05-23T10:33:21.987Z,1381.00
2023-05-23T10:34:22.987Z,1369.00
2023-05-23T10:35:23.019Z,1360.00
2023-05-23T10:36:23.021Z,1367.00
2023-05-23T10:37:23.033Z,1366.00
2023-05-23T10:38:22.030Z,1372.00
2023-05-23T10:39:22.016Z,1365.00
2023-05-23T10:40:22.998Z,1350.00
2023-05-23T10:41:23.036Z,1346.00
2023-05-23T10:42:23.019Z,1349.00
2023-05-23T10:43:23.166Z,1349.00
2023-05-23T10:44:23.086Z,1362.00
2023-05-23T10:45:22.159Z,1361.00
2023-05-23T10:46:22.338Z,1349.00
2023-05-23T10:47:22.301Z,1347.00
2023-05-23T10:48:22.318Z,1352.00
2023-05-23T10:49:22.349Z,1351.00
2023-05-23T10:50:24.162Z,1353.00
2023-05-23T10:51:22.473Z,1348.00
2023-05-23T10:52:22.534Z,1353.00
2023-05-23T10:53:22.587Z,1354.00
2023-05-23T10:54:22.641Z,1341.00
2023-05-23T10:55:23.687Z,1348.00
2023-05-23T10:56:22.735Z,1353.00
2023-05-23T10:57:23.870Z,1332.00
2023-05-23T10:58:23.826Z,1339.00
2023-05-23T10:59:23.895Z,1333.00
2023-05-23T11:00:23.930Z,1343.00
2023-05-23T11:01:24.226Z,1337.00
2023-05-23T11:02:24.099Z,1341.00
2023-05-23T11:03:23.110Z,1336.00
2023-05-23T11:04:23.176Z,1335.00
2023-05-23T11:05:23.292Z,1331.00
2023-05-23T11:06:23.187Z,1321.00
2023-05-23T11:07:23.219Z,1335.00
2023-05-23T11:08:29.574Z,1336.00
2023-05-23T11:09:24.277Z,1338.00
2023-05-23T11:10:24.247Z,1341.00
2023-05-23T11:11:24.242Z,1339.00
2023-05-23T11:12:23.212Z,1323.00
2023-05-23T11:13:23.260Z,1336.00
2023-05-23T11:14:24.211Z,1324.00
2023-05-23T11:15:24.194Z,1333.00
2023-05-23T11:16:23.299Z,1324.00
2023-05-23T11:17:24.283Z,1310.00
2023-05-23T11:18:24.187Z,1315.00
2023-05-23T11:19:24.222Z,1309.00
2023-05-23T11:20:24.165Z,1308.00
2023-05-23T11:21:23.158Z,1319.00
2023-05-23T11:22:24.148Z,1310.00
2023-05-23T11:23:24.227Z,1309.00
2023-05-23T11:24:23.168Z,1309.00
2023-05-23T11:25:23.139Z,1295.00
2023-05-23T11:26:23.130Z,1310.00
2023-05-23T11:27:24.114Z,1298.00
2023-05-23T11:28:24.127Z,1293.00
2023-05-23T11:29:23.133Z,1285.00
2023-05-23T11:30:24.093Z,1295.00
2023-05-23T11:31:24.121Z,1287.00
2023-05-23T11:32:23.142Z,1292.00
2023-05-23T11:33:23.102Z,1292.00
2023-05-23T11:34:24.070Z,1279.00
2023-05-23T11:35:24.079Z,1281.00
2023-05-23T11:36:23.085Z,1274.00
2023-05-23T11:37:25.935Z,1273.00
2023-05-23T11:38:24.182Z,1274.00
2023-05-23T11:39:24.109Z,1276.00
2023-05-23T11:40:23.040Z,1274.00
2023-05-23T11:41:23.036Z,1277.00
2023-05-23T11:42:24.032Z,1281.00
2023-05-23T11:43:23.031Z,1277.00
2023-05-23T11:44:24.017Z,1269.00
2023-05-23T11:45:23.033Z,1261.00
2023-05-23T11:46:23.028Z,1273.00
2023-05-23T11:47:24.080Z,1267.00
2023-05-23T11:48:23.008Z,1267.00
2023-05-23T11:49:23.992Z,1263.00
2023-05-23T11:50:22.970Z,1262.00
2023-05-23T11:51:22.984Z,1267.00
2023-05-23T11:52:22.961Z,1269.00
2023-05-23T11:53:23.986Z,1261.00
2023-05-23T11:54:23.963Z,1259.00
2023-05-23T11:55:22.962Z,1255.00
2023-05-23T11:56:22.944Z,1255.00
2023-05-23T11:57:23.924Z,1238.00
2023-05-23T11:58:23.950Z,1256.00
2023-05-23T11:59:23.922Z,1230.00
2023-05-23T12:00:23.927Z,1234.00
2023-05-23T12:01:23.031Z,1241.00
2023-05-23T12:02:23.924Z,1236.00
2023-05-23T12:03:24.104Z,1238.00
2023-05-23T12:04:24.064Z,1230.00
2023-05-23T12:05:22.870Z,1225.00
2023-05-23T12:06:22.883Z,1216.00
2023-05-23T12:07:23.902Z,1228.00
2023-05-23T12:08:22.863Z,1227.00
2023-05-23T12:09:23.848Z,1221.00
2023-05-23T12:10:22.845Z,1227.00
2023-05-23T12:11:23.859Z,1222.00
2023-05-23T12:12:23.823Z,1220.00
2023-05-23T12:13:23.827Z,1211.00
2023-05-23T12:14:23.823Z,1215.00
2023-05-23T12:15:22.822Z,1203.00
2023-05-23T12:16:22.814Z,1201.00
2023-05-23T12:17:23.819Z,1191.00